Tokyo, Japan
Current Conditions -  °F | °C
As of 2:05 PM on Wednesday 26 Nov 2014 (Local Time) from RJTT Reporting Station
Rain Showers Rain Showers  
Wind Chill: 50°   Ceiling: 1000
Heat Index: 50°   Visibility: 4mi
Dew Point: 46°   Wind: 21mph
Humidity: 87%   Direction: 330°NNW
Pressure: 29.85"   Gusts: 32mph
Location:  35.67°N, 139.77°E
Report Text: RJTT 260505Z 33018G28KT 7000 -SHRA FEW005 BKN010 BKN015 10/08 Q1011 RMK 1ST005 5ST010 6CU015 A2987
Loading
Personal Weather Stations






























Interactive Weather Map New forecast layout! Learn more

10-Day Weather Forecast

Advertisements
Track Severe Weather on mobile